sensor_id;sensor_type;location;lat;lon;timestamp;P1;durP1;ratioP1;P2;durP2;ratioP2
24305;SDS011;12423;48.768;8.850;2022-09-12T00:00:03;10.40;;;7.38;;
24305;SDS011;12423;48.768;8.850;2022-09-12T00:02:12;8.48;;;6.78;;
24305;SDS011;12423;48.768;8.850;2022-09-12T00:04:13;8.75;;;6.93;;
24305;SDS011;12423;48.768;8.850;2022-09-12T00:06:18;7.15;;;6.22;;
24305;SDS011;12423;48.768;8.850;2022-09-12T00:08:23;8.38;;;6.75;;
24305;SDS011;12423;48.768;8.850;2022-09-12T00:10:25;13.13;;;7.03;;
24305;SDS011;12423;48.768;8.850;2022-09-12T00:12:26;8.95;;;6.75;;
24305;SDS011;12423;48.768;8.850;2022-09-12T00:14:27;8.27;;;6.82;;
24305;SDS011;12423;48.768;8.850;2022-09-12T00:16:28;8.30;;;7.20;;
24305;SDS011;12423;48.768;8.850;2022-09-12T00:18:31;10.88;;;7.55;;
24305;SDS011;12423;48.768;8.850;2022-09-12T00:20:33;10.85;;;7.20;;
24305;SDS011;12423;48.768;8.850;2022-09-12T00:22:34;11.35;;;6.90;;
24305;SDS011;12423;48.768;8.850;2022-09-12T00:24:35;10.70;;;7.47;;
24305;SDS011;12423;48.768;8.850;2022-09-12T00:26:36;8.07;;;5.93;;
24305;SDS011;12423;48.768;8.850;2022-09-12T00:28:39;8.93;;;6.85;;
24305;SDS011;12423;48.768;8.850;2022-09-12T00:30:47;10.82;;;7.32;;
24305;SDS011;12423;48.768;8.850;2022-09-12T00:32:48;10.32;;;7.85;;
24305;SDS011;12423;48.768;8.850;2022-09-12T00:34:51;8.88;;;7.15;;
24305;SDS011;12423;48.768;8.850;2022-09-12T00:36:52;8.82;;;7.13;;
24305;SDS011;12423;48.768;8.850;2022-09-12T00:38:53;11.40;;;7.70;;
24305;SDS011;12423;48.768;8.850;2022-09-12T00:40:54;9.45;;;7.05;;
24305;SDS011;12423;48.768;8.850;2022-09-12T00:42:55;12.07;;;8.10;;
24305;SDS011;12423;48.768;8.850;2022-09-12T00:44:56;10.20;;;8.30;;
24305;SDS011;12423;48.768;8.850;2022-09-12T00:46:58;13.98;;;8.95;;
24305;SDS011;12423;48.768;8.850;2022-09-12T00:49:18;11.18;;;8.25;;
24305;SDS011;12423;48.768;8.850;2022-09-12T00:51:26;9.48;;;7.20;;
24305;SDS011;12423;48.768;8.850;2022-09-12T00:53:30;9.63;;;7.47;;
24305;SDS011;12423;48.768;8.850;2022-09-12T00:55:35;9.65;;;8.00;;
24305;SDS011;12423;48.768;8.850;2022-09-12T00:57:51;10.27;;;8.23;;
24305;SDS011;12423;48.768;8.850;2022-09-12T00:59:57;8.45;;;6.55;;
24305;SDS011;12423;48.768;8.850;2022-09-12T01:02:01;8.30;;;7.13;;
24305;SDS011;12423;48.768;8.850;2022-09-12T01:04:02;8.75;;;7.32;;
24305;SDS011;12423;48.768;8.850;2022-09-12T01:06:20;10.20;;;7.22;;
24305;SDS011;12423;48.768;8.850;2022-09-12T01:08:26;10.30;;;6.70;;
24305;SDS011;12423;48.768;8.850;2022-09-12T01:10:28;9.43;;;7.45;;
24305;SDS011;12423;48.768;8.850;2022-09-12T01:12:30;8.73;;;7.20;;
24305;SDS011;12423;48.768;8.850;2022-09-12T01:14:33;8.50;;;7.53;;
24305;SDS011;12423;48.768;8.850;2022-09-12T01:16:34;9.07;;;7.00;;
24305;SDS011;12423;48.768;8.850;2022-09-12T01:20:53;9.70;;;7.40;;
24305;SDS011;12423;48.768;8.850;2022-09-12T01:28:05;10.18;;;7.43;;
24305;SDS011;12423;48.768;8.850;2022-09-12T01:30:22;8.65;;;7.00;;
24305;SDS011;12423;48.768;8.850;2022-09-12T01:35:01;10.02;;;7.32;;
24305;SDS011;12423;48.768;8.850;2022-09-12T01:44:25;9.82;;;6.57;;
24305;SDS011;12423;48.768;8.850;2022-09-12T01:48:40;8.57;;;6.88;;
24305;SDS011;12423;48.768;8.850;2022-09-12T01:50:51;8.60;;;7.15;;
24305;SDS011;12423;48.768;8.850;2022-09-12T01:53:00;9.43;;;7.17;;
24305;SDS011;12423;48.768;8.850;2022-09-12T01:55:12;9.90;;;7.25;;
24305;SDS011;12423;48.768;8.850;2022-09-12T01:57:28;9.43;;;7.53;;
24305;SDS011;12423;48.768;8.850;2022-09-12T01:59:38;8.38;;;6.70;;
24305;SDS011;12423;48.768;8.850;2022-09-12T02:01:45;10.80;;;7.22;;
24305;SDS011;12423;48.768;8.850;2022-09-12T02:03:59;11.68;;;7.30;;
24305;SDS011;12423;48.768;8.850;2022-09-12T02:06:18;8.75;;;7.18;;
24305;SDS011;12423;48.768;8.850;2022-09-12T02:08:25;9.18;;;6.68;;
24305;SDS011;12423;48.768;8.850;2022-09-12T02:10:32;9.40;;;6.88;;
24305;SDS011;12423;48.768;8.850;2022-09-12T02:12:46;9.07;;;7.53;;
24305;SDS011;12423;48.768;8.850;2022-09-12T02:14:53;8.90;;;7.22;;
24305;SDS011;12423;48.768;8.850;2022-09-12T02:17:00;11.43;;;7.90;;
24305;SDS011;12423;48.768;8.850;2022-09-12T02:19:12;10.32;;;7.40;;
24305;SDS011;12423;48.768;8.850;2022-09-12T02:21:17;11.38;;;7.55;;
24305;SDS011;12423;48.768;8.850;2022-09-12T02:23:22;10.02;;;7.32;;
24305;SDS011;12423;48.768;8.850;2022-09-12T02:25:27;8.90;;;7.22;;
24305;SDS011;12423;48.768;8.850;2022-09-12T02:27:34;10.70;;;7.47;;
24305;SDS011;12423;48.768;8.850;2022-09-12T02:29:39;9.43;;;7.15;;
24305;SDS011;12423;48.768;8.850;2022-09-12T02:34:04;10.32;;;7.15;;
24305;SDS011;12423;48.768;8.850;2022-09-12T02:38:43;9.57;;;7.95;;
24305;SDS011;12423;48.768;8.850;2022-09-12T02:40:46;14.02;;;7.68;;
24305;SDS011;12423;48.768;8.850;2022-09-12T02:42:47;10.52;;;7.32;;
24305;SDS011;12423;48.768;8.850;2022-09-12T02:44:50;9.18;;;7.00;;
24305;SDS011;12423;48.768;8.850;2022-09-12T02:46:54;8.80;;;6.82;;
24305;SDS011;12423;48.768;8.850;2022-09-12T02:49:00;8.57;;;7.28;;
24305;SDS011;12423;48.768;8.850;2022-09-12T02:51:01;14.27;;;7.00;;
24305;SDS011;12423;48.768;8.850;2022-09-12T02:53:03;9.82;;;7.50;;
24305;SDS011;12423;48.768;8.850;2022-09-12T02:55:06;9.80;;;7.50;;
24305;SDS011;12423;48.768;8.850;2022-09-12T02:57:15;9.68;;;7.10;;
24305;SDS011;12423;48.768;8.850;2022-09-12T02:59:20;8.73;;;7.03;;
24305;SDS011;12423;48.768;8.850;2022-09-12T03:06:50;9.82;;;6.97;;
24305;SDS011;12423;48.768;8.850;2022-09-12T03:09:15;8.88;;;6.63;;
24305;SDS011;12423;48.768;8.850;2022-09-12T03:11:30;10.23;;;7.85;;
24305;SDS011;12423;48.768;8.850;2022-09-12T03:13:38;8.75;;;7.20;;
24305;SDS011;12423;48.768;8.850;2022-09-12T03:18:14;10.30;;;7.85;;
24305;SDS011;12423;48.768;8.850;2022-09-12T03:22:27;8.75;;;7.25;;
24305;SDS011;12423;48.768;8.850;2022-09-12T03:26:49;8.90;;;6.60;;
24305;SDS011;12423;48.768;8.850;2022-09-12T03:28:56;8.30;;;7.00;;
24305;SDS011;12423;48.768;8.850;2022-09-12T03:30:58;9.45;;;7.75;;
24305;SDS011;12423;48.768;8.850;2022-09-12T03:32:59;9.30;;;7.00;;
24305;SDS011;12423;48.768;8.850;2022-09-12T03:35:00;10.38;;;7.43;;
24305;SDS011;12423;48.768;8.850;2022-09-12T03:37:01;10.80;;;7.28;;
24305;SDS011;12423;48.768;8.850;2022-09-12T03:39:03;8.90;;;6.88;;
24305;SDS011;12423;48.768;8.850;2022-09-12T03:41:04;9.73;;;7.47;;
24305;SDS011;12423;48.768;8.850;2022-09-12T03:43:05;10.35;;;7.22;;
24305;SDS011;12423;48.768;8.850;2022-09-12T03:45:08;9.43;;;7.25;;
24305;SDS011;12423;48.768;8.850;2022-09-12T03:47:10;10.60;;;7.68;;
24305;SDS011;12423;48.768;8.850;2022-09-12T03:49:11;10.27;;;7.10;;
24305;SDS011;12423;48.768;8.850;2022-09-12T03:51:12;10.68;;;7.50;;
24305;SDS011;12423;48.768;8.850;2022-09-12T03:53:13;11.75;;;7.28;;
24305;SDS011;12423;48.768;8.850;2022-09-12T03:55:14;8.32;;;6.88;;
24305;SDS011;12423;48.768;8.850;2022-09-12T03:57:15;11.88;;;7.32;;
24305;SDS011;12423;48.768;8.850;2022-09-12T03:59:16;10.10;;;7.90;;
24305;SDS011;12423;48.768;8.850;2022-09-12T04:01:17;12.15;;;7.85;;
24305;SDS011;12423;48.768;8.850;2022-09-12T04:03:19;10.73;;;6.85;;
24305;SDS011;12423;48.768;8.850;2022-09-12T04:05:20;10.88;;;7.35;;
24305;SDS011;12423;48.768;8.850;2022-09-12T04:07:21;8.48;;;6.68;;
24305;SDS011;12423;48.768;8.850;2022-09-12T04:09:22;9.40;;;6.38;;
24305;SDS011;12423;48.768;8.850;2022-09-12T04:11:23;9.55;;;6.82;;
24305;SDS011;12423;48.768;8.850;2022-09-12T04:13:24;8.20;;;6.88;;
24305;SDS011;12423;48.768;8.850;2022-09-12T04:15:25;8.50;;;6.90;;
24305;SDS011;12423;48.768;8.850;2022-09-12T04:17:26;10.52;;;7.43;;
24305;SDS011;12423;48.768;8.850;2022-09-12T04:19:27;8.65;;;7.00;;
24305;SDS011;12423;48.768;8.850;2022-09-12T04:21:28;11.77;;;7.60;;
24305;SDS011;12423;48.768;8.850;2022-09-12T04:23:29;10.60;;;7.10;;
24305;SDS011;12423;48.768;8.850;2022-09-12T04:25:30;8.60;;;7.30;;
24305;SDS011;12423;48.768;8.850;2022-09-12T04:27:31;9.32;;;7.30;;
24305;SDS011;12423;48.768;8.850;2022-09-12T04:29:32;10.18;;;7.20;;
24305;SDS011;12423;48.768;8.850;2022-09-12T04:31:33;10.38;;;7.47;;
24305;SDS011;12423;48.768;8.850;2022-09-12T04:33:34;10.57;;;6.85;;
24305;SDS011;12423;48.768;8.850;2022-09-12T04:35:36;15.35;;;7.28;;
24305;SDS011;12423;48.768;8.850;2022-09-12T04:37:37;11.60;;;6.95;;
24305;SDS011;12423;48.768;8.850;2022-09-12T04:39:37;9.80;;;7.30;;
24305;SDS011;12423;48.768;8.850;2022-09-12T04:41:39;9.48;;;7.60;;
24305;SDS011;12423;48.768;8.850;2022-09-12T04:43:41;13.77;;;7.70;;
24305;SDS011;12423;48.768;8.850;2022-09-12T04:45:45;10.20;;;6.95;;
24305;SDS011;12423;48.768;8.850;2022-09-12T04:47:47;9.23;;;7.25;;
24305;SDS011;12423;48.768;8.850;2022-09-12T04:49:48;9.75;;;7.57;;
24305;SDS011;12423;48.768;8.850;2022-09-12T04:51:51;9.57;;;7.22;;
24305;SDS011;12423;48.768;8.850;2022-09-12T04:53:55;9.75;;;7.05;;
24305;SDS011;12423;48.768;8.850;2022-09-12T04:56:05;8.65;;;7.25;;
24305;SDS011;12423;48.768;8.850;2022-09-12T04:58:07;10.25;;;7.00;;
24305;SDS011;12423;48.768;8.850;2022-09-12T05:00:09;9.13;;;7.00;;
24305;SDS011;12423;48.768;8.850;2022-09-12T05:02:14;9.43;;;7.45;;
24305;SDS011;12423;48.768;8.850;2022-09-12T05:04:15;9.35;;;7.70;;
24305;SDS011;12423;48.768;8.850;2022-09-12T05:08:19;10.52;;;7.88;;
24305;SDS011;12423;48.768;8.850;2022-09-12T05:10:20;10.85;;;8.07;;
24305;SDS011;12423;48.768;8.850;2022-09-12T05:12:23;9.20;;;7.25;;
24305;SDS011;12423;48.768;8.850;2022-09-12T05:14:24;10.27;;;7.55;;
24305;SDS011;12423;48.768;8.850;2022-09-12T05:16:25;8.77;;;7.35;;
24305;SDS011;12423;48.768;8.850;2022-09-12T05:18:28;9.43;;;6.78;;
24305;SDS011;12423;48.768;8.850;2022-09-12T05:20:34;8.75;;;6.68;;
24305;SDS011;12423;48.768;8.850;2022-09-12T05:22:35;11.85;;;7.22;;
24305;SDS011;12423;48.768;8.850;2022-09-12T05:24:36;9.40;;;6.75;;
24305;SDS011;12423;48.768;8.850;2022-09-12T05:26:43;9.05;;;6.85;;
24305;SDS011;12423;48.768;8.850;2022-09-12T05:28:43;10.38;;;7.35;;
24305;SDS011;12423;48.768;8.850;2022-09-12T05:30:44;10.68;;;8.20;;
24305;SDS011;12423;48.768;8.850;2022-09-12T05:32:45;11.88;;;8.60;;
24305;SDS011;12423;48.768;8.850;2022-09-12T05:34:46;12.35;;;7.47;;
24305;SDS011;12423;48.768;8.850;2022-09-12T05:36:47;11.65;;;8.63;;
24305;SDS011;12423;48.768;8.850;2022-09-12T05:38:48;9.32;;;7.40;;
24305;SDS011;12423;48.768;8.850;2022-09-12T05:40:50;9.90;;;7.40;;
24305;SDS011;12423;48.768;8.850;2022-09-12T05:42:51;11.10;;;7.35;;
24305;SDS011;12423;48.768;8.850;2022-09-12T05:44:52;9.10;;;7.30;;
24305;SDS011;12423;48.768;8.850;2022-09-12T05:46:53;10.57;;;7.28;;
24305;SDS011;12423;48.768;8.850;2022-09-12T05:48:54;11.07;;;7.90;;
24305;SDS011;12423;48.768;8.850;2022-09-12T05:51:00;14.40;;;8.15;;
24305;SDS011;12423;48.768;8.850;2022-09-12T05:53:02;12.25;;;7.68;;
24305;SDS011;12423;48.768;8.850;2022-09-12T05:55:03;10.98;;;7.82;;
24305;SDS011;12423;48.768;8.850;2022-09-12T05:57:05;10.90;;;8.52;;
24305;SDS011;12423;48.768;8.850;2022-09-12T05:59:13;12.27;;;8.30;;
24305;SDS011;12423;48.768;8.850;2022-09-12T06:01:15;10.13;;;7.38;;
24305;SDS011;12423;48.768;8.850;2022-09-12T06:03:17;10.32;;;7.60;;
24305;SDS011;12423;48.768;8.850;2022-09-12T06:05:18;9.43;;;7.63;;
24305;SDS011;12423;48.768;8.850;2022-09-12T06:07:19;10.27;;;7.15;;
24305;SDS011;12423;48.768;8.850;2022-09-12T06:09:20;9.95;;;7.20;;
24305;SDS011;12423;48.768;8.850;2022-09-12T06:11:23;9.50;;;7.28;;
24305;SDS011;12423;48.768;8.850;2022-09-12T06:13:25;13.75;;;8.50;;
24305;SDS011;12423;48.768;8.850;2022-09-12T06:15:26;11.98;;;7.82;;
24305;SDS011;12423;48.768;8.850;2022-09-12T06:17:27;12.10;;;8.00;;
24305;SDS011;12423;48.768;8.850;2022-09-12T06:19:28;9.85;;;7.32;;
24305;SDS011;12423;48.768;8.850;2022-09-12T06:21:29;10.05;;;7.57;;
24305;SDS011;12423;48.768;8.850;2022-09-12T06:23:30;10.05;;;7.60;;
24305;SDS011;12423;48.768;8.850;2022-09-12T06:25:32;12.35;;;7.95;;
24305;SDS011;12423;48.768;8.850;2022-09-12T06:27:33;11.70;;;7.65;;
24305;SDS011;12423;48.768;8.850;2022-09-12T06:29:34;13.52;;;7.60;;
24305;SDS011;12423;48.768;8.850;2022-09-12T06:31:35;9.68;;;7.63;;
24305;SDS011;12423;48.768;8.850;2022-09-12T06:33:39;9.40;;;7.50;;
24305;SDS011;12423;48.768;8.850;2022-09-12T06:35:42;13.90;;;8.00;;
24305;SDS011;12423;48.768;8.850;2022-09-12T06:37:43;9.13;;;7.25;;
24305;SDS011;12423;48.768;8.850;2022-09-12T06:39:45;12.23;;;7.57;;
24305;SDS011;12423;48.768;8.850;2022-09-12T06:41:46;12.65;;;7.60;;
24305;SDS011;12423;48.768;8.850;2022-09-12T06:43:51;10.75;;;7.38;;
24305;SDS011;12423;48.768;8.850;2022-09-12T06:45:53;10.52;;;6.68;;
24305;SDS011;12423;48.768;8.850;2022-09-12T06:47:54;10.60;;;7.47;;
24305;SDS011;12423;48.768;8.850;2022-09-12T06:49:55;10.90;;;8.13;;
24305;SDS011;12423;48.768;8.850;2022-09-12T06:51:56;9.65;;;7.15;;
24305;SDS011;12423;48.768;8.850;2022-09-12T06:53:57;10.93;;;7.88;;
24305;SDS011;12423;48.768;8.850;2022-09-12T06:55:59;11.98;;;7.90;;
24305;SDS011;12423;48.768;8.850;2022-09-12T06:58:02;10.38;;;8.10;;
24305;SDS011;12423;48.768;8.850;2022-09-12T07:00:03;9.60;;;7.60;;
24305;SDS011;12423;48.768;8.850;2022-09-12T07:02:05;10.82;;;8.27;;
24305;SDS011;12423;48.768;8.850;2022-09-12T07:04:06;9.60;;;7.70;;
24305;SDS011;12423;48.768;8.850;2022-09-12T07:06:08;11.38;;;7.35;;
24305;SDS011;12423;48.768;8.850;2022-09-12T07:08:11;10.73;;;7.40;;
24305;SDS011;12423;48.768;8.850;2022-09-12T07:10:12;8.93;;;6.93;;
24305;SDS011;12423;48.768;8.850;2022-09-12T07:12:13;12.43;;;7.28;;
24305;SDS011;12423;48.768;8.850;2022-09-12T07:14:14;10.30;;;7.57;;
24305;SDS011;12423;48.768;8.850;2022-09-12T07:16:16;9.13;;;7.50;;
24305;SDS011;12423;48.768;8.850;2022-09-12T07:18:17;11.40;;;7.32;;
24305;SDS011;12423;48.768;8.850;2022-09-12T07:20:18;9.88;;;8.32;;
24305;SDS011;12423;48.768;8.850;2022-09-12T07:22:19;13.60;;;8.50;;
24305;SDS011;12423;48.768;8.850;2022-09-12T07:24:20;10.93;;;7.60;;
24305;SDS011;12423;48.768;8.850;2022-09-12T07:26:21;10.00;;;7.95;;
24305;SDS011;12423;48.768;8.850;2022-09-12T07:28:23;11.85;;;6.68;;
24305;SDS011;12423;48.768;8.850;2022-09-12T07:30:25;14.18;;;7.93;;
24305;SDS011;12423;48.768;8.850;2022-09-12T07:32:26;8.00;;;6.53;;
24305;SDS011;12423;48.768;8.850;2022-09-12T07:34:27;9.20;;;7.15;;
24305;SDS011;12423;48.768;8.850;2022-09-12T07:36:28;10.38;;;7.45;;
24305;SDS011;12423;48.768;8.850;2022-09-12T07:38:29;10.57;;;7.35;;
24305;SDS011;12423;48.768;8.850;2022-09-12T07:40:30;12.25;;;7.43;;
24305;SDS011;12423;48.768;8.850;2022-09-12T07:42:31;9.63;;;6.70;;
24305;SDS011;12423;48.768;8.850;2022-09-12T07:44:32;10.77;;;7.65;;
24305;SDS011;12423;48.768;8.850;2022-09-12T07:46:33;10.23;;;7.65;;
24305;SDS011;12423;48.768;8.850;2022-09-12T07:48:35;10.82;;;7.45;;
24305;SDS011;12423;48.768;8.850;2022-09-12T07:50:36;10.32;;;7.18;;
24305;SDS011;12423;48.768;8.850;2022-09-12T07:52:37;10.95;;;7.70;;
24305;SDS011;12423;48.768;8.850;2022-09-12T07:54:38;10.18;;;7.47;;
24305;SDS011;12423;48.768;8.850;2022-09-12T07:56:39;10.82;;;7.00;;
24305;SDS011;12423;48.768;8.850;2022-09-12T07:58:40;9.15;;;7.30;;
24305;SDS011;12423;48.768;8.850;2022-09-12T08:00:42;9.60;;;7.72;;
24305;SDS011;12423;48.768;8.850;2022-09-12T08:02:49;9.75;;;7.25;;
24305;SDS011;12423;48.768;8.850;2022-09-12T08:04:53;7.07;;;6.07;;
24305;SDS011;12423;48.768;8.850;2022-09-12T08:06:54;9.95;;;6.72;;
24305;SDS011;12423;48.768;8.850;2022-09-12T08:08:56;7.38;;;6.30;;
24305;SDS011;12423;48.768;8.850;2022-09-12T08:10:58;6.43;;;4.78;;
24305;SDS011;12423;48.768;8.850;2022-09-12T08:13:00;7.55;;;6.20;;
24305;SDS011;12423;48.768;8.850;2022-09-12T08:15:03;7.40;;;5.47;;
24305;SDS011;12423;48.768;8.850;2022-09-12T08:17:04;5.88;;;5.28;;
24305;SDS011;12423;48.768;8.850;2022-09-12T08:19:06;5.90;;;4.60;;
24305;SDS011;12423;48.768;8.850;2022-09-12T08:21:09;7.38;;;4.47;;
24305;SDS011;12423;48.768;8.850;2022-09-12T08:23:12;6.07;;;4.22;;
24305;SDS011;12423;48.768;8.850;2022-09-12T08:25:13;5.78;;;4.60;;
24305;SDS011;12423;48.768;8.850;2022-09-12T08:27:14;6.13;;;4.05;;
24305;SDS011;12423;48.768;8.850;2022-09-12T08:29:15;5.20;;;4.25;;
24305;SDS011;12423;48.768;8.850;2022-09-12T08:31:17;5.30;;;4.55;;
24305;SDS011;12423;48.768;8.850;2022-09-12T08:33:20;6.05;;;4.72;;
24305;SDS011;12423;48.768;8.850;2022-09-12T08:35:21;6.53;;;4.85;;
24305;SDS011;12423;48.768;8.850;2022-09-12T08:37:22;6.28;;;4.40;;
24305;SDS011;12423;48.768;8.850;2022-09-12T08:39:23;5.97;;;4.70;;
24305;SDS011;12423;48.768;8.850;2022-09-12T08:43:31;4.50;;;3.30;;
24305;SDS011;12423;48.768;8.850;2022-09-12T08:45:49;5.35;;;3.88;;
24305;SDS011;12423;48.768;8.850;2022-09-12T08:47:58;4.88;;;3.40;;
24305;SDS011;12423;48.768;8.850;2022-09-12T08:50:11;4.38;;;3.75;;
24305;SDS011;12423;48.768;8.850;2022-09-12T08:54:33;6.47;;;3.35;;
24305;SDS011;12423;48.768;8.850;2022-09-12T08:56:35;4.15;;;3.00;;
24305;SDS011;12423;48.768;8.850;2022-09-12T08:58:41;5.15;;;3.58;;
24305;SDS011;12423;48.768;8.850;2022-09-12T09:03:07;4.45;;;3.40;;
24305;SDS011;12423;48.768;8.850;2022-09-12T09:05:43;4.10;;;2.88;;
24305;SDS011;12423;48.768;8.850;2022-09-12T09:10:17;3.50;;;2.90;;
24305;SDS011;12423;48.768;8.850;2022-09-12T09:16:21;4.40;;;2.55;;
24305;SDS011;12423;48.768;8.850;2022-09-12T09:18:28;7.30;;;2.72;;
24305;SDS011;12423;48.768;8.850;2022-09-12T09:20:44;3.40;;;2.50;;
24305;SDS011;12423;48.768;8.850;2022-09-12T09:22:55;3.38;;;2.50;;
24305;SDS011;12423;48.768;8.850;2022-09-12T09:25:22;4.40;;;2.33;;
24305;SDS011;12423;48.768;8.850;2022-09-12T09:27:32;3.78;;;2.17;;
24305;SDS011;12423;48.768;8.850;2022-09-12T09:29:40;3.28;;;2.55;;
24305;SDS011;12423;48.768;8.850;2022-09-12T09:31:46;4.28;;;2.28;;
24305;SDS011;12423;48.768;8.850;2022-09-12T09:33:50;3.88;;;2.30;;
24305;SDS011;12423;48.768;8.850;2022-09-12T09:38:18;7.68;;;5.70;;
24305;SDS011;12423;48.768;8.850;2022-09-12T09:40:42;4.45;;;2.63;;
24305;SDS011;12423;48.768;8.850;2022-09-12T09:42:55;3.17;;;2.40;;
24305;SDS011;12423;48.768;8.850;2022-09-12T09:45:16;3.15;;;2.15;;
24305;SDS011;12423;48.768;8.850;2022-09-12T09:47:20;2.88;;;1.80;;
24305;SDS011;12423;48.768;8.850;2022-09-12T09:49:21;3.47;;;2.28;;
24305;SDS011;12423;48.768;8.850;2022-09-12T09:51:25;2.92;;;2.10;;
24305;SDS011;12423;48.768;8.850;2022-09-12T09:55:49;3.22;;;1.92;;
24305;SDS011;12423;48.768;8.850;2022-09-12T09:57:54;2.70;;;1.83;;
24305;SDS011;12423;48.768;8.850;2022-09-12T09:59:55;2.80;;;1.77;;
24305;SDS011;12423;48.768;8.850;2022-09-12T10:02:01;2.72;;;1.92;;
24305;SDS011;12423;48.768;8.850;2022-09-12T10:04:23;2.65;;;1.70;;
24305;SDS011;12423;48.768;8.850;2022-09-12T10:06:30;4.32;;;1.70;;
24305;SDS011;12423;48.768;8.850;2022-09-12T10:08:34;2.55;;;1.50;;
24305;SDS011;12423;48.768;8.850;2022-09-12T10:10:37;2.22;;;1.35;;
24305;SDS011;12423;48.768;8.850;2022-09-12T10:13:12;4.25;;;1.30;;
24305;SDS011;12423;48.768;8.850;2022-09-12T10:15:24;2.13;;;1.25;;
24305;SDS011;12423;48.768;8.850;2022-09-12T10:17:38;2.30;;;1.50;;
24305;SDS011;12423;48.768;8.850;2022-09-12T10:19:43;2.22;;;1.42;;
24305;SDS011;12423;48.768;8.850;2022-09-12T10:21:49;3.47;;;1.70;;
24305;SDS011;12423;48.768;8.850;2022-09-12T10:23:56;2.45;;;1.55;;
24305;SDS011;12423;48.768;8.850;2022-09-12T10:26:31;2.33;;;1.40;;
24305;SDS011;12423;48.768;8.850;2022-09-12T10:28:36;3.35;;;1.70;;
24305;SDS011;12423;48.768;8.850;2022-09-12T10:30:40;2.33;;;1.48;;
24305;SDS011;12423;48.768;8.850;2022-09-12T10:32:53;1.92;;;1.23;;
24305;SDS011;12423;48.768;8.850;2022-09-12T10:35:07;1.95;;;1.27;;
24305;SDS011;12423;48.768;8.850;2022-09-12T10:39:39;2.42;;;1.60;;
24305;SDS011;12423;48.768;8.850;2022-09-12T10:41:41;2.13;;;1.10;;
24305;SDS011;12423;48.768;8.850;2022-09-12T10:43:42;2.20;;;1.35;;
24305;SDS011;12423;48.768;8.850;2022-09-12T10:45:43;1.52;;;1.10;;
24305;SDS011;12423;48.768;8.850;2022-09-12T10:47:44;1.92;;;1.35;;
24305;SDS011;12423;48.768;8.850;2022-09-12T10:49:46;5.03;;;1.20;;
24305;SDS011;12423;48.768;8.850;2022-09-12T10:51:47;1.90;;;1.10;;
24305;SDS011;12423;48.768;8.850;2022-09-12T10:53:49;1.55;;;1.10;;
24305;SDS011;12423;48.768;8.850;2022-09-12T10:56:07;2.83;;;0.93;;
24305;SDS011;12423;48.768;8.850;2022-09-12T11:00:16;1.42;;;0.90;;
24305;SDS011;12423;48.768;8.850;2022-09-12T11:02:29;3.53;;;1.15;;
24305;SDS011;12423;48.768;8.850;2022-09-12T11:09:24;1.70;;;0.90;;
24305;SDS011;12423;48.768;8.850;2022-09-12T11:16:24;3.17;;;1.13;;
24305;SDS011;12423;48.768;8.850;2022-09-12T11:26:07;1.88;;;0.90;;
24305;SDS011;12423;48.768;8.850;2022-09-12T11:31:14;2.78;;;0.70;;
24305;SDS011;12423;48.768;8.850;2022-09-12T11:35:30;1.73;;;0.93;;
24305;SDS011;12423;48.768;8.850;2022-09-12T11:39:52;1.67;;;0.85;;
24305;SDS011;12423;48.768;8.850;2022-09-12T11:41:57;1.80;;;0.82;;
24305;SDS011;12423;48.768;8.850;2022-09-12T11:48:39;1.00;;;0.70;;
24305;SDS011;12423;48.768;8.850;2022-09-12T11:50:46;1.42;;;0.80;;
24305;SDS011;12423;48.768;8.850;2022-09-12T11:52:47;2.17;;;0.70;;
24305;SDS011;12423;48.768;8.850;2022-09-12T11:59:32;0.90;;;0.60;;
24305;SDS011;12423;48.768;8.850;2022-09-12T12:01:40;0.60;;;0.50;;
24305;SDS011;12423;48.768;8.850;2022-09-12T12:03:45;1.42;;;0.60;;
24305;SDS011;12423;48.768;8.850;2022-09-12T12:08:03;0.80;;;0.60;;
24305;SDS011;12423;48.768;8.850;2022-09-12T12:10:05;2.45;;;0.60;;
24305;SDS011;12423;48.768;8.850;2022-09-12T12:12:07;1.15;;;0.70;;
24305;SDS011;12423;48.768;8.850;2022-09-12T12:14:14;0.90;;;0.60;;
24305;SDS011;12423;48.768;8.850;2022-09-12T12:18:28;1.45;;;0.70;;
24305;SDS011;12423;48.768;8.850;2022-09-12T12:20:31;1.02;;;0.70;;
24305;SDS011;12423;48.768;8.850;2022-09-12T12:22:32;2.00;;;0.80;;
24305;SDS011;12423;48.768;8.850;2022-09-12T12:24:33;1.23;;;0.70;;
24305;SDS011;12423;48.768;8.850;2022-09-12T12:35:35;1.33;;;0.52;;
24305;SDS011;12423;48.768;8.850;2022-09-12T12:37:49;0.88;;;0.40;;
24305;SDS011;12423;48.768;8.850;2022-09-12T12:39:56;0.50;;;0.35;;
24305;SDS011;12423;48.768;8.850;2022-09-12T12:42:07;2.28;;;0.60;;
24305;SDS011;12423;48.768;8.850;2022-09-12T12:47:05;0.68;;;0.43;;
24305;SDS011;12423;48.768;8.850;2022-09-12T12:49:17;0.75;;;0.50;;
24305;SDS011;12423;48.768;8.850;2022-09-12T12:51:34;1.10;;;0.50;;
24305;SDS011;12423;48.768;8.850;2022-09-12T12:53:39;0.47;;;0.45;;
24305;SDS011;12423;48.768;8.850;2022-09-12T13:00:04;2.00;;;0.80;;
24305;SDS011;12423;48.768;8.850;2022-09-12T13:02:14;1.02;;;0.60;;
24305;SDS011;12423;48.768;8.850;2022-09-12T13:04:20;1.55;;;0.52;;
24305;SDS011;12423;48.768;8.850;2022-09-12T13:06:28;0.65;;;0.40;;
24305;SDS011;12423;48.768;8.850;2022-09-12T13:08:31;1.00;;;0.50;;
24305;SDS011;12423;48.768;8.850;2022-09-12T13:10:35;1.00;;;0.52;;
24305;SDS011;12423;48.768;8.850;2022-09-12T13:12:42;0.82;;;0.40;;
24305;SDS011;12423;48.768;8.850;2022-09-12T13:16:57;1.15;;;0.60;;
24305;SDS011;12423;48.768;8.850;2022-09-12T13:19:23;1.40;;;0.70;;
24305;SDS011;12423;48.768;8.850;2022-09-12T13:21:29;1.38;;;0.50;;
24305;SDS011;12423;48.768;8.850;2022-09-12T13:23:30;0.50;;;0.40;;
24305;SDS011;12423;48.768;8.850;2022-09-12T13:25:33;0.90;;;0.50;;
24305;SDS011;12423;48.768;8.850;2022-09-12T13:27:35;1.80;;;0.50;;
24305;SDS011;12423;48.768;8.850;2022-09-12T13:29:36;0.65;;;0.35;;
24305;SDS011;12423;48.768;8.850;2022-09-12T13:31:38;0.73;;;0.50;;
24305;SDS011;12423;48.768;8.850;2022-09-12T13:33:50;0.73;;;0.50;;
24305;SDS011;12423;48.768;8.850;2022-09-12T13:38:19;0.68;;;0.32;;
24305;SDS011;12423;48.768;8.850;2022-09-12T13:40:28;1.17;;;0.50;;
24305;SDS011;12423;48.768;8.850;2022-09-12T13:42:41;1.00;;;0.45;;
24305;SDS011;12423;48.768;8.850;2022-09-12T13:47:15;1.40;;;0.57;;
24305;SDS011;12423;48.768;8.850;2022-09-12T13:49:34;2.50;;;0.70;;
24305;SDS011;12423;48.768;8.850;2022-09-12T13:51:38;1.52;;;0.60;;
24305;SDS011;12423;48.768;8.850;2022-09-12T13:53:42;1.23;;;0.40;;
24305;SDS011;12423;48.768;8.850;2022-09-12T13:55:46;1.35;;;0.40;;
24305;SDS011;12423;48.768;8.850;2022-09-12T13:58:04;0.60;;;0.40;;
24305;SDS011;12423;48.768;8.850;2022-09-12T14:00:14;1.67;;;0.40;;
24305;SDS011;12423;48.768;8.850;2022-09-12T14:02:20;0.90;;;0.43;;
24305;SDS011;12423;48.768;8.850;2022-09-12T14:04:25;0.35;;;0.35;;
24305;SDS011;12423;48.768;8.850;2022-09-12T14:06:46;1.13;;;0.50;;
24305;SDS011;12423;48.768;8.850;2022-09-12T14:08:49;0.93;;;0.43;;
24305;SDS011;12423;48.768;8.850;2022-09-12T14:10:51;0.63;;;0.50;;
24305;SDS011;12423;48.768;8.850;2022-09-12T14:12:53;1.00;;;0.70;;
24305;SDS011;12423;48.768;8.850;2022-09-12T14:14:56;1.13;;;0.55;;
24305;SDS011;12423;48.768;8.850;2022-09-12T14:16:58;1.17;;;0.50;;
24305;SDS011;12423;48.768;8.850;2022-09-12T14:19:00;1.00;;;0.50;;
24305;SDS011;12423;48.768;8.850;2022-09-12T14:21:08;1.13;;;0.50;;
24305;SDS011;12423;48.768;8.850;2022-09-12T14:23:23;0.70;;;0.40;;
24305;SDS011;12423;48.768;8.850;2022-09-12T14:25:27;1.60;;;0.60;;
24305;SDS011;12423;48.768;8.850;2022-09-12T14:27:40;1.77;;;0.55;;
24305;SDS011;12423;48.768;8.850;2022-09-12T14:31:46;1.00;;;0.52;;